sensor_id;sensor_type;location;lat;lon;timestamp;pressure;altitude;pressure_sealevel;temperature;humidity
78562;BME280;68963;52.138;5.446;2024-01-16T00:01:01;100917.81;;;-0.75;100.00
78562;BME280;68963;52.138;5.446;2024-01-16T00:03:27;100913.66;;;-0.78;100.00
78562;BME280;68963;52.138;5.446;2024-01-16T00:05:54;100915.66;;;-0.81;100.00
78562;BME280;68963;52.138;5.446;2024-01-16T00:08:21;100907.28;;;-0.85;100.00
78562;BME280;68963;52.138;5.446;2024-01-16T00:10:47;100914.34;;;-0.87;100.00
78562;BME280;68963;52.138;5.446;2024-01-16T00:13:14;100914.22;;;-0.85;100.00
78562;BME280;68963;52.138;5.446;2024-01-16T00:15:43;100912.59;;;-0.86;100.00
78562;BME280;68963;52.138;5.446;2024-01-16T00:18:10;100913.31;;;-0.84;100.00
78562;BME280;68963;52.138;5.446;2024-01-16T00:20:36;100917.53;;;-0.83;100.00
78562;BME280;68963;52.138;5.446;2024-01-16T00:23:03;100931.91;;;-0.79;100.00
78562;BME280;68963;52.138;5.446;2024-01-16T00:25:30;100933.09;;;-0.72;100.00
78562;BME280;68963;52.138;5.446;2024-01-16T00:27:57;100947.44;;;-0.68;100.00
78562;BME280;68963;52.138;5.446;2024-01-16T00:30:23;100944.44;;;-0.62;100.00
78562;BME280;68963;52.138;5.446;2024-01-16T00:32:50;100938.91;;;-0.57;100.00
78562;BME280;68963;52.138;5.446;2024-01-16T00:35:17;100926.44;;;-0.52;100.00
78562;BME280;68963;52.138;5.446;2024-01-16T00:37:43;100928.94;;;-0.51;100.00
78562;BME280;68963;52.138;5.446;2024-01-16T00:40:10;100921.03;;;-0.49;100.00
78562;BME280;68963;52.138;5.446;2024-01-16T00:42:37;100918.69;;;-0.52;100.00
78562;BME280;68963;52.138;5.446;2024-01-16T00:45:04;100918.09;;;-0.56;100.00
78562;BME280;68963;52.138;5.446;2024-01-16T00:47:30;100924.44;;;-0.60;100.00
78562;BME280;68963;52.138;5.446;2024-01-16T00:49:58;100924.78;;;-0.64;100.00
78562;BME280;68963;52.138;5.446;2024-01-16T00:52:26;100923.47;;;-0.70;100.00
78562;BME280;68963;52.138;5.446;2024-01-16T00:54:53;100928.28;;;-0.77;100.00
78562;BME280;68963;52.138;5.446;2024-01-16T00:57:20;100927.75;;;-0.82;100.00
78562;BME280;68963;52.138;5.446;2024-01-16T00:59:47;100929.06;;;-0.87;100.00
78562;BME280;68963;52.138;5.446;2024-01-16T01:02:14;100938.88;;;-0.92;100.00
78562;BME280;68963;52.138;5.446;2024-01-16T01:04:41;100934.88;;;-0.97;100.00
78562;BME280;68963;52.138;5.446;2024-01-16T01:07:12;100936.16;;;-1.02;100.00
78562;BME280;68963;52.138;5.446;2024-01-16T01:09:39;100944.94;;;-1.05;100.00
78562;BME280;68963;52.138;5.446;2024-01-16T01:12:06;100940.13;;;-1.09;100.00
78562;BME280;68963;52.138;5.446;2024-01-16T01:14:34;100943.53;;;-1.09;100.00
78562;BME280;68963;52.138;5.446;2024-01-16T01:17:01;100937.63;;;-1.11;100.00
78562;BME280;68963;52.138;5.446;2024-01-16T01:19:27;100945.28;;;-1.09;100.00
78562;BME280;68963;52.138;5.446;2024-01-16T01:21:54;100946.09;;;-1.09;100.00
78562;BME280;68963;52.138;5.446;2024-01-16T01:24:20;100935.97;;;-1.12;100.00
78562;BME280;68963;52.138;5.446;2024-01-16T01:26:47;100934.34;;;-1.13;100.00
78562;BME280;68963;52.138;5.446;2024-01-16T01:29:14;100947.25;;;-1.13;100.00
78562;BME280;68963;52.138;5.446;2024-01-16T01:31:40;100944.78;;;-1.14;100.00
78562;BME280;68963;52.138;5.446;2024-01-16T01:34:07;100940.75;;;-1.18;100.00
78562;BME280;68963;52.138;5.446;2024-01-16T01:36:33;100935.72;;;-1.20;100.00
78562;BME280;68963;52.138;5.446;2024-01-16T01:39:00;100935.09;;;-1.24;100.00
78562;BME280;68963;52.138;5.446;2024-01-16T01:41:27;100936.75;;;-1.23;100.00
78562;BME280;68963;52.138;5.446;2024-01-16T01:43:53;100941.91;;;-1.23;100.00
78562;BME280;68963;52.138;5.446;2024-01-16T01:46:20;100940.97;;;-1.22;100.00
78562;BME280;68963;52.138;5.446;2024-01-16T01:48:48;100935.50;;;-1.17;100.00
78562;BME280;68963;52.138;5.446;2024-01-16T01:51:18;100945.28;;;-1.09;100.00
78562;BME280;68963;52.138;5.446;2024-01-16T01:53:47;100953.44;;;-1.03;100.00
78562;BME280;68963;52.138;5.446;2024-01-16T01:56:17;100971.78;;;-0.94;100.00
78562;BME280;68963;52.138;5.446;2024-01-16T01:58:47;100991.09;;;-0.87;100.00
78562;BME280;68963;52.138;5.446;2024-01-16T02:01:15;100997.03;;;-0.74;100.00
78562;BME280;68963;52.138;5.446;2024-01-16T02:03:44;100984.59;;;-0.69;100.00
78562;BME280;68963;52.138;5.446;2024-01-16T02:06:12;100986.72;;;-0.63;100.00
78562;BME280;68963;52.138;5.446;2024-01-16T02:08:39;100992.41;;;-0.58;100.00
78562;BME280;68963;52.138;5.446;2024-01-16T02:11:06;100990.31;;;-0.53;100.00
78562;BME280;68963;52.138;5.446;2024-01-16T02:13:33;100983.97;;;-0.49;100.00
78562;BME280;68963;52.138;5.446;2024-01-16T02:16:00;100980.47;;;-0.47;100.00
78562;BME280;68963;52.138;5.446;2024-01-16T02:18:27;100974.22;;;-0.45;100.00
78562;BME280;68963;52.138;5.446;2024-01-16T02:21:01;100971.53;;;-0.43;100.00
78562;BME280;68963;52.138;5.446;2024-01-16T02:23:33;100977.41;;;-0.41;100.00
78562;BME280;68963;52.138;5.446;2024-01-16T02:26:00;100959.28;;;-0.41;100.00
78562;BME280;68963;52.138;5.446;2024-01-16T02:28:27;100944.59;;;-0.41;100.00
78562;BME280;68963;52.138;5.446;2024-01-16T02:30:54;100949.06;;;-0.43;100.00
78562;BME280;68963;52.138;5.446;2024-01-16T02:33:20;100941.66;;;-0.47;100.00
78562;BME280;68963;52.138;5.446;2024-01-16T02:35:47;100946.31;;;-0.53;100.00
78562;BME280;68963;52.138;5.446;2024-01-16T02:38:15;100952.66;;;-0.57;100.00
78562;BME280;68963;52.138;5.446;2024-01-16T02:40:41;100956.88;;;-0.56;100.00
78562;BME280;68963;52.138;5.446;2024-01-16T02:43:08;100953.59;;;-0.58;100.00
78562;BME280;68963;52.138;5.446;2024-01-16T02:45:34;100957.00;;;-0.57;100.00
78562;BME280;68963;52.138;5.446;2024-01-16T02:48:01;100952.66;;;-0.57;100.00
78562;BME280;68963;52.138;5.446;2024-01-16T02:50:29;100956.19;;;-0.58;100.00
78562;BME280;68963;52.138;5.446;2024-01-16T02:52:56;100957.00;;;-0.57;100.00
78562;BME280;68963;52.138;5.446;2024-01-16T02:55:23;100953.38;;;-0.55;100.00
78562;BME280;68963;52.138;5.446;2024-01-16T02:57:49;100952.56;;;-0.55;100.00
78562;BME280;68963;52.138;5.446;2024-01-16T03:00:16;100957.75;;;-0.55;100.00
78562;BME280;68963;52.138;5.446;2024-01-16T03:02:44;100955.97;;;-0.55;100.00
78562;BME280;68963;52.138;5.446;2024-01-16T03:05:11;100955.03;;;-0.54;100.00
78562;BME280;68963;52.138;5.446;2024-01-16T03:07:37;100942.09;;;-0.54;100.00
78562;BME280;68963;52.138;5.446;2024-01-16T03:10:04;100951.50;;;-0.53;100.00
78562;BME280;68963;52.138;5.446;2024-01-16T03:12:33;100959.25;;;-0.53;100.00
78562;BME280;68963;52.138;5.446;2024-01-16T03:15:00;100962.56;;;-0.51;100.00
78562;BME280;68963;52.138;5.446;2024-01-16T03:17:27;100959.03;;;-0.50;100.00
78562;BME280;68963;52.138;5.446;2024-01-16T03:19:53;100965.75;;;-0.47;100.00
78562;BME280;68963;52.138;5.446;2024-01-16T03:22:20;100972.44;;;-0.44;100.00
78562;BME280;68963;52.138;5.446;2024-01-16T03:24:46;100984.34;;;-0.42;100.00
78562;BME280;68963;52.138;5.446;2024-01-16T03:27:13;100978.81;;;-0.37;100.00
78562;BME280;68963;52.138;5.446;2024-01-16T03:29:39;100984.72;;;-0.35;100.00
78562;BME280;68963;52.138;5.446;2024-01-16T03:32:06;100981.91;;;-0.32;100.00
78562;BME280;68963;52.138;5.446;2024-01-16T03:34:33;100974.97;;;-0.32;100.00
78562;BME280;68963;52.138;5.446;2024-01-16T03:37:00;100967.91;;;-0.30;100.00
78562;BME280;68963;52.138;5.446;2024-01-16T03:39:26;100966.97;;;-0.29;100.00
78562;BME280;68963;52.138;5.446;2024-01-16T03:41:53;100971.06;;;-0.26;100.00
78562;BME280;68963;52.138;5.446;2024-01-16T03:44:19;100966.75;;;-0.26;100.00
78562;BME280;68963;52.138;5.446;2024-01-16T03:46:46;100973.56;;;-0.25;100.00
78562;BME280;68963;52.138;5.446;2024-01-16T03:49:13;100979.44;;;-0.22;100.00
78562;BME280;68963;52.138;5.446;2024-01-16T03:51:39;100975.94;;;-0.21;100.00
78562;BME280;68963;52.138;5.446;2024-01-16T03:54:09;100967.22;;;-0.20;100.00
78562;BME280;68963;52.138;5.446;2024-01-16T03:56:35;100971.56;;;-0.21;100.00
78562;BME280;68963;52.138;5.446;2024-01-16T03:59:02;100970.63;;;-0.20;100.00
78562;BME280;68963;52.138;5.446;2024-01-16T04:01:33;100969.81;;;-0.20;100.00
78562;BME280;68963;52.138;5.446;2024-01-16T04:04:03;100966.41;;;-0.21;100.00
78562;BME280;68963;52.138;5.446;2024-01-16T04:06:33;100960.63;;;-0.25;100.00
78562;BME280;68963;52.138;5.446;2024-01-16T04:08:59;100967.66;;;-0.27;100.00
78562;BME280;68963;52.138;5.446;2024-01-16T04:11:26;100955.09;;;-0.31;100.00
78562;BME280;68963;52.138;5.446;2024-01-16T04:13:52;100959.66;;;-0.35;100.00
78562;BME280;68963;52.138;5.446;2024-01-16T04:16:19;100953.19;;;-0.40;100.00
78562;BME280;68963;52.138;5.446;2024-01-16T04:18:46;100948.34;;;-0.45;100.00
78562;BME280;68963;52.138;5.446;2024-01-16T04:21:12;100944.34;;;-0.49;100.00
78562;BME280;68963;52.138;5.446;2024-01-16T04:23:42;100931.53;;;-0.51;100.00
78562;BME280;68963;52.138;5.446;2024-01-16T04:26:08;100935.88;;;-0.51;100.00
78562;BME280;68963;52.138;5.446;2024-01-16T04:28:36;100946.91;;;-0.49;100.00
78562;BME280;68963;52.138;5.446;2024-01-16T04:31:05;100933.16;;;-0.50;100.00
78562;BME280;68963;52.138;5.446;2024-01-16T04:33:32;100942.56;;;-0.49;100.00
78562;BME280;68963;52.138;5.446;2024-01-16T04:35:59;100942.47;;;-0.47;100.00
78562;BME280;68963;52.138;5.446;2024-01-16T04:38:25;100935.53;;;-0.46;100.00
78562;BME280;68963;52.138;5.446;2024-01-16T04:40:52;100934.56;;;-0.45;100.00
78562;BME280;68963;52.138;5.446;2024-01-16T04:43:20;100943.97;;;-0.44;100.00
78562;BME280;68963;52.138;5.446;2024-01-16T04:45:47;100941.19;;;-0.41;100.00
78562;BME280;68963;52.138;5.446;2024-01-16T04:48:13;100941.78;;;-0.38;100.00
78562;BME280;68963;52.138;5.446;2024-01-16T04:50:40;100934.81;;;-0.37;100.00
78562;BME280;68963;52.138;5.446;2024-01-16T04:53:07;100943.19;;;-0.34;100.00
78562;BME280;68963;52.138;5.446;2024-01-16T04:55:33;100943.09;;;-0.32;100.00
78562;BME280;68963;52.138;5.446;2024-01-16T04:58:00;100943.78;;;-0.30;100.00
78562;BME280;68963;52.138;5.446;2024-01-16T05:00:26;100941.91;;;-0.28;100.00
78562;BME280;68963;52.138;5.446;2024-01-16T05:02:53;100929.78;;;-0.28;100.00
78562;BME280;68963;52.138;5.446;2024-01-16T05:05:20;100934.03;;;-0.27;100.00
78562;BME280;68963;52.138;5.446;2024-01-16T05:07:47;100931.44;;;-0.27;100.00
78562;BME280;68963;52.138;5.446;2024-01-16T05:10:13;100923.66;;;-0.27;100.00
78562;BME280;68963;52.138;5.446;2024-01-16T05:12:40;100924.97;;;-0.32;100.00
78562;BME280;68963;52.138;5.446;2024-01-16T05:15:08;100914.72;;;-0.34;100.00
78562;BME280;68963;52.138;5.446;2024-01-16T05:17:35;100909.81;;;-0.37;100.00
78562;BME280;68963;52.138;5.446;2024-01-16T05:20:02;100907.66;;;-0.43;100.00
78562;BME280;68963;52.138;5.446;2024-01-16T05:22:31;100901.06;;;-0.47;100.00
78562;BME280;68963;52.138;5.446;2024-01-16T05:24:59;100907.28;;;-0.50;100.00
78562;BME280;68963;52.138;5.446;2024-01-16T05:27:26;100898.81;;;-0.52;100.00
78562;BME280;68963;52.138;5.446;2024-01-16T05:29:52;100894.72;;;-0.54;100.00
78562;BME280;68963;52.138;5.446;2024-01-16T05:32:19;100890.56;;;-0.57;100.00
78562;BME280;68963;52.138;5.446;2024-01-16T05:34:45;100892.56;;;-0.60;100.00
78562;BME280;68963;52.138;5.446;2024-01-16T05:37:12;100888.56;;;-0.64;100.00
78562;BME280;68963;52.138;5.446;2024-01-16T05:39:39;100887.84;;;-0.66;100.00
78562;BME280;68963;52.138;5.446;2024-01-16T05:42:05;100883.75;;;-0.69;100.00
78562;BME280;68963;52.138;5.446;2024-01-16T05:44:32;100883.84;;;-0.70;100.00
78562;BME280;68963;52.138;5.446;2024-01-16T05:47:00;100882.19;;;-0.71;100.00
78562;BME280;68963;52.138;5.446;2024-01-16T05:49:26;100878.91;;;-0.74;100.00
78562;BME280;68963;52.138;5.446;2024-01-16T05:51:53;100878.06;;;-0.74;100.00
78562;BME280;68963;52.138;5.446;2024-01-16T05:54:19;100878.19;;;-0.76;100.00
78562;BME280;68963;52.138;5.446;2024-01-16T05:56:46;100869.72;;;-0.78;100.00
78562;BME280;68963;52.138;5.446;2024-01-16T05:59:13;100869.97;;;-0.81;100.00
78562;BME280;68963;52.138;5.446;2024-01-16T06:01:39;100873.47;;;-0.82;100.00
78562;BME280;68963;52.138;5.446;2024-01-16T06:04:06;100875.34;;;-0.84;100.00
78562;BME280;68963;52.138;5.446;2024-01-16T06:06:32;100875.34;;;-0.84;100.00
78562;BME280;68963;52.138;5.446;2024-01-16T06:08:59;100874.41;;;-0.83;100.00
78562;BME280;68963;52.138;5.446;2024-01-16T06:11:32;100874.28;;;-0.81;100.00
78562;BME280;68963;52.138;5.446;2024-01-16T06:13:59;100877.81;;;-0.82;100.00
78562;BME280;68963;52.138;5.446;2024-01-16T06:16:26;100876.16;;;-0.83;100.00
78562;BME280;68963;52.138;5.446;2024-01-16T06:18:53;100871.59;;;-0.80;100.00
78562;BME280;68963;52.138;5.446;2024-01-16T06:21:19;100875.00;;;-0.79;100.00
78562;BME280;68963;52.138;5.446;2024-01-16T06:23:50;100877.38;;;-0.76;100.00
78562;BME280;68963;52.138;5.446;2024-01-16T06:26:16;100877.03;;;-0.71;100.00
78562;BME280;68963;52.138;5.446;2024-01-16T06:28:44;100883.50;;;-0.66;100.00
78562;BME280;68963;52.138;5.446;2024-01-16T06:31:10;100889.03;;;-0.59;100.00
78562;BME280;68963;52.138;5.446;2024-01-16T06:33:38;100894.72;;;-0.54;100.00
78562;BME280;68963;52.138;5.446;2024-01-16T06:36:05;100894.22;;;-0.48;100.00
78562;BME280;68963;52.138;5.446;2024-01-16T06:38:32;100901.53;;;-0.42;100.00
78562;BME280;68963;52.138;5.446;2024-01-16T06:40:58;100905.53;;;-0.38;100.00
78562;BME280;68963;52.138;5.446;2024-01-16T06:43:25;100907.91;;;-0.35;100.00
78562;BME280;68963;52.138;5.446;2024-01-16T06:45:52;100910.25;;;-0.32;100.00
78562;BME280;68963;52.138;5.446;2024-01-16T06:48:19;100895.44;;;-0.30;100.00
78562;BME280;68963;52.138;5.446;2024-01-16T06:50:46;100897.09;;;-0.29;100.00
78562;BME280;68963;52.138;5.446;2024-01-16T06:53:13;100894.50;;;-0.29;100.00
78562;BME280;68963;52.138;5.446;2024-01-16T06:55:42;100897.91;;;-0.28;100.00
78562;BME280;68963;52.138;5.446;2024-01-16T06:58:09;100894.38;;;-0.27;100.00
78562;BME280;68963;52.138;5.446;2024-01-16T07:00:36;100898.75;;;-0.28;100.00
78562;BME280;68963;52.138;5.446;2024-01-16T07:03:03;100894.28;;;-0.26;100.00
78562;BME280;68963;52.138;5.446;2024-01-16T07:05:30;100891.69;;;-0.26;100.00
78562;BME280;68963;52.138;5.446;2024-01-16T07:07:57;100897.69;;;-0.25;100.00
78562;BME280;68963;52.138;5.446;2024-01-16T07:10:24;100889.09;;;-0.26;100.00
78562;BME280;68963;52.138;5.446;2024-01-16T07:12:51;100902.75;;;-0.23;100.00
78562;BME280;68963;52.138;5.446;2024-01-16T07:15:18;100896.03;;;-0.26;100.00
78562;BME280;68963;52.138;5.446;2024-01-16T07:17:45;100896.88;;;-0.26;100.00
78562;BME280;68963;52.138;5.446;2024-01-16T07:20:12;100899.56;;;-0.27;100.00
78562;BME280;68963;52.138;5.446;2024-01-16T07:22:39;100897.91;;;-0.28;100.00
78562;BME280;68963;52.138;5.446;2024-01-16T07:25:06;100903.09;;;-0.28;100.00
78562;BME280;68963;52.138;5.446;2024-01-16T07:27:33;100896.16;;;-0.28;100.00
78562;BME280;68963;52.138;5.446;2024-01-16T07:30:01;100912.41;;;-0.26;100.00
78562;BME280;68963;52.138;5.446;2024-01-16T07:32:28;100911.56;;;-0.26;100.00
78562;BME280;68963;52.138;5.446;2024-01-16T07:34:58;100913.22;;;-0.25;100.00
78562;BME280;68963;52.138;5.446;2024-01-16T07:37:24;100909.69;;;-0.24;100.00
78562;BME280;68963;52.138;5.446;2024-01-16T07:39:51;100914.84;;;-0.24;100.00
78562;BME280;68963;52.138;5.446;2024-01-16T07:42:17;100917.69;;;-0.27;100.00
78562;BME280;68963;52.138;5.446;2024-01-16T07:44:44;100918.72;;;-0.30;100.00
78562;BME280;68963;52.138;5.446;2024-01-16T07:47:10;100918.13;;;-0.33;100.00
78562;BME280;68963;52.138;5.446;2024-01-16T07:49:37;100918.03;;;-0.32;100.00
78562;BME280;68963;52.138;5.446;2024-01-16T07:52:04;100923.91;;;-0.30;100.00
78562;BME280;68963;52.138;5.446;2024-01-16T07:54:30;100926.50;;;-0.30;100.00
78562;BME280;68963;52.138;5.446;2024-01-16T07:56:57;100921.31;;;-0.30;100.00
78562;BME280;68963;52.138;5.446;2024-01-16T07:59:24;100918.63;;;-0.28;100.00
78562;BME280;68963;52.138;5.446;2024-01-16T08:01:50;100926.25;;;-0.27;100.00
78562;BME280;68963;52.138;5.446;2024-01-16T08:04:17;100925.34;;;-0.26;100.00
78562;BME280;68963;52.138;5.446;2024-01-16T08:06:45;100924.41;;;-0.25;100.00
78562;BME280;68963;52.138;5.446;2024-01-16T08:09:11;100922.75;;;-0.26;100.00
78562;BME280;68963;52.138;5.446;2024-01-16T08:11:39;100920.16;;;-0.26;100.00
78562;BME280;68963;52.138;5.446;2024-01-16T08:14:06;100926.97;;;-0.25;100.00
78562;BME280;68963;52.138;5.446;2024-01-16T08:16:32;100923.34;;;-0.22;100.00
78562;BME280;68963;52.138;5.446;2024-01-16T08:18:59;100918.75;;;-0.18;100.00
78562;BME280;68963;52.138;5.446;2024-01-16T08:21:26;100923.81;;;-0.17;100.00
78562;BME280;68963;52.138;5.446;2024-01-16T08:23:52;100915.00;;;-0.14;100.00
78562;BME280;68963;52.138;5.446;2024-01-16T08:26:19;100910.41;;;-0.11;100.00
78562;BME280;68963;52.138;5.446;2024-01-16T08:28:46;100917.91;;;-0.08;100.00
78562;BME280;68963;52.138;5.446;2024-01-16T08:31:12;100912.66;;;-0.06;100.00
78562;BME280;68963;52.138;5.446;2024-01-16T08:33:39;100916.88;;;-0.05;100.00
78562;BME280;68963;52.138;5.446;2024-01-16T08:36:13;100912.28;;;-0.02;100.00
78562;BME280;68963;52.138;5.446;2024-01-16T08:38:40;100914.88;;;-0.02;100.00
78562;BME280;68963;52.138;5.446;2024-01-16T08:41:07;100915.81;;;-0.03;100.00
78562;BME280;68963;52.138;5.446;2024-01-16T08:43:34;100919.97;;;0.00;100.00
78562;BME280;68963;52.138;5.446;2024-01-16T08:46:00;100910.66;;;-0.03;100.00
78562;BME280;68963;52.138;5.446;2024-01-16T08:48:27;100917.81;;;-0.06;100.00
78562;BME280;68963;52.138;5.446;2024-01-16T08:50:54;100916.78;;;-0.04;100.00
78562;BME280;68963;52.138;5.446;2024-01-16T08:53:21;100917.47;;;-0.02;100.00
78562;BME280;68963;52.138;5.446;2024-01-16T08:55:50;100910.41;;;0.01;100.00
78562;BME280;68963;52.138;5.446;2024-01-16T08:58:16;100915.22;;;0.05;100.00
78562;BME280;68963;52.138;5.446;2024-01-16T09:00:43;100911.59;;;0.08;100.00
78562;BME280;68963;52.138;5.446;2024-01-16T09:03:11;100912.06;;;0.13;100.00
78562;BME280;68963;52.138;5.446;2024-01-16T09:05:38;100913.22;;;0.20;100.00
78562;BME280;68963;52.138;5.446;2024-01-16T09:08:06;100911.00;;;0.27;100.00
78562;BME280;68963;52.138;5.446;2024-01-16T09:10:36;100915.00;;;0.31;100.00
78562;BME280;68963;52.138;5.446;2024-01-16T09:13:05;100913.09;;;0.33;100.00
78562;BME280;68963;52.138;5.446;2024-01-16T09:15:32;100917.34;;;0.34;100.00
78562;BME280;68963;52.138;5.446;2024-01-16T09:17:58;100908.75;;;0.33;100.00
78562;BME280;68963;52.138;5.446;2024-01-16T09:20:25;100917.34;;;0.34;100.00
78562;BME280;68963;52.138;5.446;2024-01-16T09:22:52;100913.81;;;0.35;100.00
78562;BME280;68963;52.138;5.446;2024-01-16T09:25:18;100907.81;;;0.34;100.00
78562;BME280;68963;52.138;5.446;2024-01-16T09:27:45;100907.56;;;0.37;100.00
78562;BME280;68963;52.138;5.446;2024-01-16T09:30:12;100913.34;;;0.41;100.00
78562;BME280;68963;52.138;5.446;2024-01-16T09:32:39;100905.78;;;0.49;100.00
78562;BME280;68963;52.138;5.446;2024-01-16T09:35:09;100910.34;;;0.57;100.00
78562;BME280;68963;52.138;5.446;2024-01-16T09:37:35;100919.53;;;0.61;100.00
78562;BME280;68963;52.138;5.446;2024-01-16T09:40:02;100919.16;;;0.65;100.00
78562;BME280;68963;52.138;5.446;2024-01-16T09:42:31;100913.38;;;0.73;100.00
78562;BME280;68963;52.138;5.446;2024-01-16T09:45:00;100911.47;;;0.75;100.00
78562;BME280;68963;52.138;5.446;2024-01-16T09:47:30;100910.66;;;0.75;100.00
78562;BME280;68963;52.138;5.446;2024-01-16T09:49:59;100908.31;;;0.71;100.00
78562;BME280;68963;52.138;5.446;2024-01-16T09:52:26;100910.19;;;0.69;100.00
78562;BME280;68963;52.138;5.446;2024-01-16T09:58:34;100901.59;;;0.69;100.00
78562;BME280;68963;52.138;5.446;2024-01-16T10:01:03;100897.94;;;0.71;100.00
78562;BME280;68963;52.138;5.446;2024-01-16T10:03:31;100905.81;;;0.70;100.00
78562;BME280;68963;52.138;5.446;2024-01-16T10:05:59;100899.72;;;0.71;100.00
78562;BME280;68963;52.138;5.446;2024-01-16T10:08:28;100887.34;;;0.75;100.00
78562;BME280;68963;52.138;5.446;2024-01-16T10:10:55;100895.31;;;0.83;100.00
78562;BME280;68963;52.138;5.446;2024-01-16T10:13:21;100896.22;;;0.93;100.00
78562;BME280;68963;52.138;5.446;2024-01-16T10:15:51;100879.22;;;1.00;100.00
78562;BME280;68963;52.138;5.446;2024-01-16T10:18:25;100867.91;;;1.01;100.00
78562;BME280;68963;52.138;5.446;2024-01-16T10:20:53;100875.44;;;1.04;100.00
78562;BME280;68963;52.138;5.446;2024-01-16T10:28:40;100880.69;;;1.35;100.00
78562;BME280;68963;52.138;5.446;2024-01-16T10:31:08;100872.25;;;1.42;100.00
78562;BME280;68963;52.138;5.446;2024-01-16T10:33:35;100864.66;;;1.51;100.00
78562;BME280;68963;52.138;5.446;2024-01-16T10:36:10;100865.78;;;1.58;100.00
78562;BME280;68963;52.138;5.446;2024-01-16T10:38:44;100871.75;;;1.69;100.00
78562;BME280;68963;52.138;5.446;2024-01-16T10:41:16;100865.50;;;1.82;100.00
78562;BME280;68963;52.138;5.446;2024-01-16T10:43:48;100864.84;;;1.89;100.00
78562;BME280;68963;52.138;5.446;2024-01-16T10:46:18;100871.44;;;1.93;100.00
78562;BME280;68963;52.138;5.446;2024-01-16T10:49:00;100866.75;;;1.87;100.00
78562;BME280;68963;52.138;5.446;2024-01-16T10:51:28;100878.78;;;1.88;100.00
78562;BME280;68963;52.138;5.446;2024-01-16T10:54:05;100877.69;;;1.91;100.00
78562;BME280;68963;52.138;5.446;2024-01-16T10:56:34;100876.94;;;2.00;100.00
78562;BME280;68963;52.138;5.446;2024-01-16T11:01:39;100863.94;;;2.10;100.00
78562;BME280;68963;52.138;5.446;2024-01-16T11:04:10;100862.88;;;2.12;100.00
78562;BME280;68963;52.138;5.446;2024-01-16T11:06:41;100865.06;;;2.07;100.00
78562;BME280;68963;52.138;5.446;2024-01-16T11:09:09;100861.91;;;2.04;100.00
78562;BME280;68963;52.138;5.446;2024-01-16T11:11:35;100859.41;;;2.02;100.00
78562;BME280;68963;52.138;5.446;2024-01-16T11:14:06;100856.81;;;2.02;100.00
78562;BME280;68963;52.138;5.446;2024-01-16T11:16:33;100852.31;;;2.04;100.00
78562;BME280;68963;52.138;5.446;2024-01-16T11:19:01;100841.53;;;1.99;100.00
78562;BME280;68963;52.138;5.446;2024-01-16T11:21:49;100843.16;;;2.00;100.00
78562;BME280;68963;52.138;5.446;2024-01-16T11:24:16;100841.22;;;2.02;100.00
78562;BME280;68963;52.138;5.446;2024-01-16T11:26:43;100844.28;;;2.07;100.00
78562;BME280;68963;52.138;5.446;2024-01-16T11:31:56;100827.19;;;2.14;100.00
78562;BME280;68963;52.138;5.446;2024-01-16T11:37:25;100818.47;;;2.25;100.00
78562;BME280;68963;52.138;5.446;2024-01-16T11:42:41;100814.66;;;2.29;100.00
78562;BME280;68963;52.138;5.446;2024-01-16T11:48:13;100818.72;;;2.32;100.00
78562;BME280;68963;52.138;5.446;2024-01-16T11:50:41;100811.09;;;2.40;100.00
78562;BME280;68963;52.138;5.446;2024-01-16T11:53:08;100808.91;;;2.45;100.00
78562;BME280;68963;52.138;5.446;2024-01-16T11:55:58;100813.16;;;2.56;100.00
78562;BME280;68963;52.138;5.446;2024-01-16T12:01:06;100811.13;;;2.69;100.00
78562;BME280;68963;52.138;5.446;2024-01-16T12:03:33;100812.88;;;2.78;100.00
78562;BME280;68963;52.138;5.446;2024-01-16T12:06:01;100802.34;;;2.89;100.00
78562;BME280;68963;52.138;5.446;2024-01-16T12:08:29;100809.16;;;3.00;100.00
78562;BME280;68963;52.138;5.446;2024-01-16T12:10:56;100806.41;;;3.11;100.00
78562;BME280;68963;52.138;5.446;2024-01-16T12:13:24;100806.13;;;3.05;100.00
78562;BME280;68963;52.138;5.446;2024-01-16T12:16:03;100792.91;;;2.88;100.00
78562;BME280;68963;52.138;5.446;2024-01-16T12:18:31;100795.06;;;2.83;100.00
78562;BME280;68963;52.138;5.446;2024-01-16T12:21:13;100793.44;;;2.82;100.00
78562;BME280;68963;52.138;5.446;2024-01-16T12:23:41;100782.22;;;2.72;100.00
78562;BME280;68963;52.138;5.446;2024-01-16T12:26:22;100785.38;;;2.66;100.00
78562;BME280;68963;52.138;5.446;2024-01-16T12:28:52;100789.34;;;2.60;100.00
78562;BME280;68963;52.138;5.446;2024-01-16T12:31:26;100790.19;;;2.51;100.00
78562;BME280;68963;52.138;5.446;2024-01-16T12:33:55;100788.50;;;2.50;100.00
78562;BME280;68963;52.138;5.446;2024-01-16T12:36:29;100789.50;;;2.59;100.00
78562;BME280;68963;52.138;5.446;2024-01-16T12:38:56;100782.25;;;2.62;100.00
78562;BME280;68963;52.138;5.446;2024-01-16T12:41:24;100783.34;;;2.70;100.00
78562;BME280;68963;52.138;5.446;2024-01-16T12:44:05;100777.28;;;2.79;100.00
78562;BME280;68963;52.138;5.446;2024-01-16T12:46:41;100779.06;;;2.88;100.00
78562;BME280;68963;52.138;5.446;2024-01-16T12:49:08;100770.94;;;3.01;100.00
78562;BME280;68963;52.138;5.446;2024-01-16T12:51:38;100769.53;;;3.26;100.00
78562;BME280;68963;52.138;5.446;2024-01-16T12:54:14;100778.78;;;3.38;100.00
78562;BME280;68963;52.138;5.446;2024-01-16T12:56:42;100771.81;;;3.38;100.00
78562;BME280;68963;52.138;5.446;2024-01-16T12:59:10;100759.00;;;3.18;100.00
78562;BME280;68963;52.138;5.446;2024-01-16T13:01:42;100764.13;;;3.00;100.00
78562;BME280;68963;52.138;5.446;2024-01-16T13:04:10;100772.34;;;2.95;100.00
78562;BME280;68963;52.138;5.446;2024-01-16T13:06:37;100770.44;;;2.87;100.00
78562;BME280;68963;52.138;5.446;2024-01-16T13:09:10;100758.00;;;2.81;100.00
78562;BME280;68963;52.138;5.446;2024-01-16T13:12:04;100762.25;;;2.73;100.00